Time;durP1;ratioP1;P1;durP2;ratioP2;P2;SDS_P1;SDS_P2;PMS_P1;PMS_P2;Temp;Humidity;BMP_temperature;BMP_pressure;BME280_temperature;BME280_humidity;BME280_pressure;Samples;Min_cycle;Max_cycle;Signal;HPM_P1;HPM_P2
2023/01/05 00:01:14;;;;;;;1.02;0.77;;;12.40;94.30;;;;;;5053603;28;20025;-66
2023/01/05 00:03:40;;;;;;;1.00;0.82;;;12.30;95.00;;;;;;5053161;28;20028;-65
2023/01/05 00:06:10;;;;;;;1.88;0.70;;;12.30;95.10;;;;;;5053601;28;20385;-66
2023/01/05 00:08:36;;;;;;;1.15;0.90;;;12.20;95.40;;;;;;5053014;28;20033;-67
2023/01/05 00:22:30;;;;;;;0.75;0.73;;;12.10;98.90;;;;;;5052906;28;20437;-67
2023/01/05 00:25:13;;;;;;;1.33;0.80;;;12.00;99.90;;;;;;5051115;28;20060;-66
2023/01/05 00:27:41;;;;;;;1.67;0.70;;;12.00;99.90;;;;;;5052810;28;20111;-65
2023/01/05 00:30:08;;;;;;;0.90;0.70;;;11.90;99.90;;;;;;5052987;28;20086;-66
2023/01/05 00:32:33;;;;;;;0.75;0.57;;;11.90;99.90;;;;;;5053021;28;20108;-66
2023/01/05 00:35:01;;;;;;;1.10;0.90;;;11.90;99.90;;;;;;5052963;28;20104;-66
2023/01/05 00:37:30;;;;;;;0.73;0.65;;;12.00;99.90;;;;;;5052555;28;20433;-66
2023/01/05 00:39:56;;;;;;;1.30;0.90;;;12.00;99.90;;;;;;5053066;28;20040;-66
2023/01/05 00:42:22;;;;;;;0.55;0.50;;;12.10;99.90;;;;;;5052586;28;20032;-65
2023/01/05 00:44:48;;;;;;;0.88;0.63;;;12.10;99.90;;;;;;5051886;28;20032;-66
2023/01/05 00:47:14;;;;;;;1.60;0.80;;;12.10;99.90;;;;;;5052556;28;20470;-66
2023/01/05 00:49:40;;;;;;;0.65;0.50;;;12.20;99.90;;;;;;5052364;28;20075;-66
2023/01/05 00:52:06;;;;;;;2.92;0.50;;;12.20;99.90;;;;;;5052837;28;20086;-66
2023/01/05 00:54:32;;;;;;;0.50;0.50;;;12.20;99.90;;;;;;5052313;28;20363;-66
2023/01/05 00:56:58;;;;;;;0.93;0.50;;;12.20;99.90;;;;;;5052425;28;20048;-66
2023/01/05 00:59:23;;;;;;;0.65;0.50;;;12.20;99.90;;;;;;5052432;28;20029;-66
2023/01/05 01:01:51;;;;;;;0.50;0.50;;;12.20;99.90;;;;;;5052262;28;20029;-66
2023/01/05 01:04:18;;;;;;;0.80;0.60;;;12.20;99.90;;;;;;5051369;28;20373;-66
2023/01/05 01:06:44;;;;;;;0.55;0.45;;;12.20;99.90;;;;;;5052186;28;20040;-66
2023/01/05 01:09:10;;;;;;;0.85;0.63;;;12.20;99.90;;;;;;5052432;28;20112;-65
2023/01/05 01:11:36;;;;;;;0.70;0.60;;;12.20;99.90;;;;;;5051983;28;20482;-66
2023/01/05 01:14:04;;;;;;;0.77;0.40;;;12.20;99.90;;;;;;5052522;28;20053;-66
2023/01/05 01:16:30;;;;;;;0.60;0.55;;;12.30;99.90;;;;;;5052129;28;20031;-66
2023/01/05 01:18:56;;;;;;;1.48;0.40;;;12.20;99.90;;;;;;5052542;28;20111;-66
2023/01/05 01:21:21;;;;;;;1.23;0.45;;;12.20;99.90;;;;;;5052527;28;20517;-66
2023/01/05 01:23:47;;;;;;;3.10;0.50;;;12.30;99.90;;;;;;5051807;28;20082;-66
2023/01/05 01:26:13;;;;;;;1.10;0.40;;;12.30;99.90;;;;;;5052517;28;20022;-65
2023/01/05 01:28:39;;;;;;;0.55;0.35;;;12.30;99.90;;;;;;5051829;28;20029;-66
2023/01/05 01:31:05;;;;;;;0.52;0.40;;;12.30;99.90;;;;;;5052468;28;20037;-66
2023/01/05 01:33:31;;;;;;;1.45;0.57;;;12.30;99.90;;;;;;5051743;28;20047;-65
2023/01/05 01:35:57;;;;;;;0.82;0.50;;;12.30;99.90;;;;;;5052326;28;20428;-65
2023/01/05 01:38:23;;;;;;;0.45;0.40;;;12.30;99.90;;;;;;5052356;28;20519;-65
2023/01/05 01:40:50;;;;;;;1.00;0.40;;;12.30;99.90;;;;;;5050543;28;20410;-65
2023/01/05 01:43:19;;;;;;;0.55;0.40;;;12.20;99.90;;;;;;5052243;28;20113;-66
2023/01/05 01:45:45;;;;;;;0.50;0.40;;;12.30;99.90;;;;;;5051616;28;20017;-65
2023/01/05 01:48:16;;;;;;;1.10;0.60;;;12.20;99.90;;;;;;5052286;28;20029;-65
2023/01/05 01:50:52;;;;;;;0.70;0.40;;;12.10;99.90;;;;;;5051806;28;20056;-65
2023/01/05 01:53:22;;;;;;;2.15;0.50;;;12.10;99.90;;;;;;5052305;28;20025;-65
2023/01/05 01:55:49;;;;;;;0.82;0.43;;;12.10;99.90;;;;;;5052786;28;20111;-65
2023/01/05 01:58:17;;;;;;;1.50;0.60;;;12.10;99.90;;;;;;5055927;28;20072;-65
2023/01/05 02:00:44;;;;;;;0.50;0.50;;;12.10;99.90;;;;;;5055443;28;20059;-65
2023/01/05 02:03:09;;;;;;;2.35;0.50;;;12.10;99.90;;;;;;5055533;28;20115;-65
2023/01/05 02:05:38;;;;;;;0.80;0.47;;;12.00;99.90;;;;;;5055479;28;20049;-65
2023/01/05 02:08:11;;;;;;;0.38;0.38;;;12.00;99.90;;;;;;5055281;28;20474;-65
2023/01/05 02:11:05;;;;;;;0.45;0.40;;;12.00;99.90;;;;;;5055230;28;20037;-67
2023/01/05 02:13:48;;;;;;;0.73;0.43;;;12.00;99.90;;;;;;5055585;28;20031;-66
2023/01/05 02:16:55;;;;;;;0.52;0.40;;;12.00;99.90;;;;;;5055524;28;20021;-66
2023/01/05 02:19:52;;;;;;;0.88;0.57;;;12.00;99.90;;;;;;5055579;28;20025;-65
2023/01/05 02:22:51;;;;;;;0.93;0.40;;;12.10;99.90;;;;;;5055481;28;20025;-65
2023/01/05 02:25:22;;;;;;;0.57;0.50;;;12.10;99.90;;;;;;5055161;28;20032;-65
2023/01/05 02:27:56;;;;;;;;;;;12.10;99.90;;;;;;5055084;28;20087;-66
2023/01/05 02:30:46;;;;;;;0.88;0.43;;;12.10;99.90;;;;;;5055298;28;20372;-67
2023/01/05 02:33:53;;;;;;;0.40;0.40;;;12.20;99.90;;;;;;5055567;28;20029;-66
2023/01/05 02:36:35;;;;;;;0.82;0.40;;;12.20;99.90;;;;;;5054857;28;20510;-67
2023/01/05 02:39:14;;;;;;;0.55;0.50;;;12.20;99.90;;;;;;5054690;28;20057;-66
2023/01/05 02:41:55;;;;;;;0.50;0.45;;;12.20;99.90;;;;;;5054772;28;20048;-66
2023/01/05 02:44:21;;;;;;;1.02;0.40;;;12.20;99.90;;;;;;5055074;28;20029;-66
2023/01/05 02:47:03;;;;;;;0.60;0.38;;;12.20;99.90;;;;;;5054593;28;20083;-65
2023/01/05 02:49:31;;;;;;;1.52;0.50;;;12.30;99.90;;;;;;5053722;28;20082;-65
2023/01/05 02:51:59;;;;;;;1.02;0.20;;;12.30;99.90;;;;;;5053599;28;20457;-64
2023/01/05 02:54:33;;;;;;;0.65;0.40;;;12.30;99.90;;;;;;5052693;28;20394;-65
2023/01/05 02:57:09;;;;;;;0.55;0.40;;;12.30;99.90;;;;;;5052724;28;20462;-68
2023/01/05 02:59:40;;;;;;;0.30;0.30;;;12.40;99.90;;;;;;5052471;28;20044;-65
2023/01/05 03:02:18;;;;;;;0.73;0.30;;;12.40;99.90;;;;;;5054265;28;20086;-65
2023/01/05 03:04:52;;;;;;;0.80;0.30;;;12.40;99.90;;;;;;5053156;28;20063;-66
2023/01/05 03:07:23;;;;;;;0.40;0.40;;;12.40;99.90;;;;;;5052895;28;20493;-66
2023/01/05 03:09:50;;;;;;;1.13;0.40;;;12.40;99.90;;;;;;5053815;28;20330;-65
2023/01/05 03:15:29;;;;;;;0.25;0.25;;;12.50;99.90;;;;;;5050565;28;20397;-65
2023/01/05 03:18:04;;;;;;;0.40;0.40;;;12.50;99.90;;;;;;5052624;28;20036;-66
2023/01/05 03:20:32;;;;;;;0.40;0.40;;;12.50;99.90;;;;;;5053994;28;20025;-66
2023/01/05 03:38:22;;;;;;;1.40;0.40;;;12.50;99.00;;;;;;5052920;28;20051;-66
2023/01/05 03:40:51;;;;;;;0.60;0.40;;;12.60;98.50;;;;;;5051927;28;20053;-66
2023/01/05 03:43:17;;;;;;;0.30;0.30;;;12.50;98.40;;;;;;5051248;28;20033;-66
2023/01/05 03:45:55;;;;;;;1.10;0.52;;;12.50;98.20;;;;;;5052696;28;20052;-67
2023/01/05 03:48:22;;;;;;;0.90;0.50;;;12.50;97.90;;;;;;5052163;28;20528;-66
2023/01/05 03:50:48;;;;;;;0.35;0.30;;;12.50;97.70;;;;;;5053148;28;20033;-66
2023/01/05 03:53:14;;;;;;;0.55;0.47;;;12.50;97.50;;;;;;5050372;28;20035;-67
2023/01/05 03:55:40;;;;;;;0.68;0.40;;;12.50;97.40;;;;;;5052838;28;20474;-66
2023/01/05 03:58:06;;;;;;;0.30;0.30;;;12.50;97.40;;;;;;5052871;28;20055;-66
2023/01/05 04:00:32;;;;;;;1.42;0.50;;;12.50;97.40;;;;;;5053497;28;20375;-66
2023/01/05 04:02:58;;;;;;;0.43;0.40;;;12.50;97.50;;;;;;5052352;28;20047;-67
2023/01/05 04:05:23;;;;;;;0.80;0.40;;;12.50;97.40;;;;;;5052947;28;20097;-67
2023/01/05 04:07:49;;;;;;;0.60;0.40;;;12.50;97.40;;;;;;5052268;28;20028;-67
2023/01/05 04:10:15;;;;;;;0.32;0.30;;;12.50;97.40;;;;;;5052859;28;20477;-67
2023/01/05 04:12:41;;;;;;;0.60;0.40;;;12.40;97.40;;;;;;5053721;28;20035;-67
2023/01/05 04:15:07;;;;;;;0.73;0.50;;;12.50;97.20;;;;;;5053917;28;20108;-67
2023/01/05 04:17:33;;;;;;;0.30;0.30;;;12.50;97.00;;;;;;5054381;28;20032;-67
2023/01/05 04:19:58;;;;;;;0.57;0.40;;;12.50;96.50;;;;;;5052517;28;20033;-66
2023/01/05 04:22:24;;;;;;;1.10;0.50;;;12.50;96.50;;;;;;5053285;28;20093;-66
2023/01/05 04:24:50;;;;;;;0.52;0.50;;;12.50;96.40;;;;;;5053116;28;20484;-65
2023/01/05 04:27:15;;;;;;;0.85;0.50;;;12.50;96.30;;;;;;5053535;28;20028;-66
2023/01/05 04:29:41;;;;;;;0.65;0.40;;;12.50;96.30;;;;;;5053300;28;20489;-66
2023/01/05 04:32:07;;;;;;;1.55;0.40;;;12.50;96.10;;;;;;5052062;28;20100;-66
2023/01/05 04:34:32;;;;;;;0.73;0.35;;;12.50;96.20;;;;;;5052806;28;20454;-66
2023/01/05 04:36:58;;;;;;;1.10;0.30;;;12.50;96.10;;;;;;5052508;28;20385;-66
2023/01/05 04:39:24;;;;;;;0.60;0.40;;;12.60;96.00;;;;;;5052726;28;20049;-66
2023/01/05 04:41:49;;;;;;;0.20;0.20;;;12.60;96.00;;;;;;5052084;28;20036;-66
2023/01/05 04:44:15;;;;;;;0.73;0.40;;;12.60;95.80;;;;;;5052861;28;20087;-66
2023/01/05 04:46:41;;;;;;;0.32;0.32;;;12.60;95.60;;;;;;5052122;28;20055;-66
2023/01/05 04:49:09;;;;;;;1.15;0.60;;;12.60;95.70;;;;;;5052581;28;20044;-66
2023/01/05 04:51:34;;;;;;;0.30;0.30;;;12.60;95.70;;;;;;5051544;28;20397;-67
2023/01/05 04:54:00;;;;;;;0.57;0.30;;;12.60;95.90;;;;;;5052126;28;20029;-66
2023/01/05 04:56:26;;;;;;;0.57;0.40;;;12.60;95.60;;;;;;5052721;28;20028;-66
2023/01/05 04:58:51;;;;;;;0.88;0.40;;;12.60;95.60;;;;;;5051995;28;20033;-67
2023/01/05 05:01:17;;;;;;;0.30;0.30;;;12.60;95.50;;;;;;5052628;28;20029;-67
2023/01/05 05:03:42;;;;;;;2.13;0.45;;;12.60;95.30;;;;;;5051997;28;20029;-67
2023/01/05 05:06:08;;;;;;;0.80;0.50;;;12.60;95.20;;;;;;5051930;28;20096;-66
2023/01/05 05:08:34;;;;;;;0.77;0.50;;;12.60;95.10;;;;;;5052119;28;20071;-67
2023/01/05 05:10:59;;;;;;;0.40;0.30;;;12.70;95.00;;;;;;5051753;28;20127;-67
2023/01/05 05:13:25;;;;;;;0.45;0.40;;;12.70;94.90;;;;;;5052127;28;20021;-66
2023/01/05 05:15:51;;;;;;;0.20;0.20;;;12.70;94.80;;;;;;5051591;28;20057;-66
2023/01/05 05:18:16;;;;;;;1.98;0.40;;;12.70;94.50;;;;;;5052005;28;20029;-66
2023/01/05 05:20:46;;;;;;;1.10;0.40;;;12.70;94.40;;;;;;5052000;28;20029;-66
2023/01/05 05:23:12;;;;;;;0.95;0.50;;;12.70;94.10;;;;;;5051962;28;20021;-66
2023/01/05 05:25:38;;;;;;;0.35;0.30;;;12.70;94.10;;;;;;5051780;28;20032;-66
2023/01/05 05:28:04;;;;;;;0.60;0.47;;;12.80;93.90;;;;;;5051472;28;20174;-66
2023/01/05 05:30:29;;;;;;;0.40;0.40;;;12.70;93.80;;;;;;5052600;28;20073;-66
2023/01/05 05:32:55;;;;;;;0.40;0.30;;;12.70;93.80;;;;;;5055626;28;20124;-66
2023/01/05 05:35:21;;;;;;;0.77;0.30;;;12.70;93.80;;;;;;5056258;28;20028;-66
2023/01/05 05:37:46;;;;;;;0.30;0.30;;;12.80;93.70;;;;;;5055482;28;20036;-66
2023/01/05 05:40:12;;;;;;;0.70;0.43;;;12.80;93.60;;;;;;5056250;28;20059;-65
2023/01/05 05:42:37;;;;;;;0.85;0.40;;;12.80;93.60;;;;;;5056069;28;20033;-65
2023/01/05 05:45:04;;;;;;;0.30;0.30;;;12.80;93.40;;;;;;5055319;28;20029;-65
2023/01/05 05:47:29;;;;;;;0.90;0.43;;;12.80;93.40;;;;;;5056084;28;20025;-66
2023/01/05 05:49:55;;;;;;;0.40;0.40;;;12.80;93.30;;;;;;5055366;28;20033;-66
2023/01/05 05:52:20;;;;;;;0.32;0.32;;;12.80;93.40;;;;;;5054869;28;20047;-66
2023/01/05 05:54:46;;;;;;;0.90;0.30;;;12.80;93.30;;;;;;5055565;28;20024;-67
2023/01/05 05:57:12;;;;;;;0.20;0.20;;;12.90;93.20;;;;;;5055660;28;20025;-66
2023/01/05 05:59:37;;;;;;;1.25;0.28;;;12.90;93.20;;;;;;5055198;28;20108;-66
2023/01/05 06:02:03;;;;;;;0.65;0.40;;;12.90;93.10;;;;;;5051706;28;20445;-66
2023/01/05 06:04:29;;;;;;;0.40;0.40;;;12.90;92.90;;;;;;5055251;28;20017;-66
2023/01/05 06:06:54;;;;;;;0.40;0.40;;;13.00;92.80;;;;;;5054829;28;20112;-67
2023/01/05 06:09:20;;;;;;;0.90;0.40;;;12.90;92.70;;;;;;5055338;28;20016;-65
2023/01/05 06:11:46;;;;;;;0.50;0.38;;;12.90;92.80;;;;;;5054564;28;20029;-67
2023/01/05 06:14:12;;;;;;;0.68;0.35;;;12.90;92.70;;;;;;5055070;28;20461;-65
2023/01/05 06:16:37;;;;;;;0.57;0.30;;;13.00;92.70;;;;;;5052353;28;20476;-65
2023/01/05 06:19:03;;;;;;;0.98;0.40;;;13.00;92.80;;;;;;5054890;28;20025;-65
2023/01/05 06:21:28;;;;;;;0.40;0.40;;;12.90;92.90;;;;;;5054959;28;20521;-65
2023/01/05 06:23:54;;;;;;;1.95;0.40;;;12.90;93.00;;;;;;5054627;28;20056;-66
2023/01/05 06:26:20;;;;;;;0.40;0.40;;;12.90;93.20;;;;;;5055108;28;20039;-65
2023/01/05 06:28:45;;;;;;;0.47;0.47;;;12.90;93.50;;;;;;5053944;28;20033;-65
2023/01/05 06:31:11;;;;;;;0.73;0.50;;;12.90;93.80;;;;;;5054357;28;20094;-66
2023/01/05 06:33:37;;;;;;;1.30;0.50;;;12.80;93.90;;;;;;5053972;28;20028;-66
2023/01/05 06:36:03;;;;;;;0.52;0.50;;;12.90;94.00;;;;;;5054673;28;20059;-66
2023/01/05 06:38:29;;;;;;;0.52;0.40;;;12.90;94.00;;;;;;5054601;28;20457;-66
2023/01/05 06:40:55;;;;;;;0.40;0.40;;;12.90;94.10;;;;;;5053575;28;20084;-66
2023/01/05 06:43:21;;;;;;;0.65;0.50;;;12.90;94.20;;;;;;5053579;28;20049;-66
2023/01/05 06:45:47;;;;;;;0.50;0.50;;;12.90;94.30;;;;;;5054465;28;20083;-66
2023/01/05 06:48:13;;;;;;;0.30;0.30;;;12.90;94.50;;;;;;5054760;28;20025;-66
2023/01/05 06:50:38;;;;;;;0.93;0.50;;;12.90;94.80;;;;;;5054543;28;20071;-66
2023/01/05 06:53:04;;;;;;;0.30;0.30;;;12.90;94.50;;;;;;5054314;28;20071;-66
2023/01/05 06:55:30;;;;;;;0.40;0.40;;;12.90;94.40;;;;;;5054732;28;20028;-67
2023/01/05 06:57:55;;;;;;;0.52;0.38;;;13.00;94.30;;;;;;5054390;28;20062;-66
2023/01/05 07:00:21;;;;;;;0.38;0.38;;;13.00;94.30;;;;;;5054624;28;20040;-66
2023/01/05 07:02:47;;;;;;;1.20;0.40;;;13.10;94.20;;;;;;5053863;28;20032;-66
2023/01/05 07:05:12;;;;;;;0.57;0.47;;;13.00;94.20;;;;;;5053678;28;20446;-67
2023/01/05 07:07:38;;;;;;;0.30;0.30;;;13.10;94.10;;;;;;5054365;28;20485;-66
2023/01/05 07:10:05;;;;;;;0.60;0.60;;;13.10;94.10;;;;;;5053880;28;20033;-66
2023/01/05 07:12:30;;;;;;;0.50;0.50;;;13.10;94.00;;;;;;5054090;28;20032;-66
2023/01/05 07:14:56;;;;;;;0.50;0.40;;;13.10;94.00;;;;;;5053377;28;20032;-66
2023/01/05 07:17:21;;;;;;;1.08;0.50;;;13.00;94.10;;;;;;5053886;28;20470;-65
2023/01/05 07:19:47;;;;;;;0.95;0.50;;;13.10;94.00;;;;;;5053669;28;20083;-65
2023/01/05 07:22:14;;;;;;;0.50;0.50;;;13.10;93.90;;;;;;5053808;28;20032;-65
2023/01/05 07:24:39;;;;;;;0.90;0.30;;;13.10;93.90;;;;;;5054112;28;20104;-65
2023/01/05 07:27:06;;;;;;;1.17;0.60;;;13.10;93.70;;;;;;5053795;28;20510;-66
2023/01/05 07:29:32;;;;;;;1.05;0.60;;;13.20;93.50;;;;;;5054032;28;20036;-65
2023/01/05 07:31:58;;;;;;;2.60;0.70;;;13.20;93.40;;;;;;5053116;28;20029;-67
2023/01/05 07:34:23;;;;;;;0.85;0.50;;;13.20;93.50;;;;;;5053942;28;20047;-66
2023/01/05 07:36:49;;;;;;;0.35;0.35;;;13.20;93.40;;;;;;5054006;28;20017;-66
2023/01/05 07:39:15;;;;;;;1.05;0.60;;;13.20;93.50;;;;;;5053339;28;20041;-66
2023/01/05 07:41:43;;;;;;;1.45;0.70;;;13.20;93.60;;;;;;5052990;28;20033;-66
2023/01/05 07:44:08;;;;;;;0.30;0.30;;;13.20;93.60;;;;;;5052623;28;20013;-66
2023/01/05 07:46:34;;;;;;;1.10;0.70;;;13.30;93.60;;;;;;5050572;28;20381;-66
2023/01/05 07:49:00;;;;;;;1.67;0.40;;;13.30;93.60;;;;;;5052522;28;20025;-66
2023/01/05 07:51:26;;;;;;;0.85;0.30;;;13.30;93.60;;;;;;5053063;28;20033;-66
2023/01/05 07:53:52;;;;;;;0.70;0.38;;;13.40;93.80;;;;;;5052671;28;20047;-70
2023/01/05 07:56:18;;;;;;;0.40;0.40;;;13.40;93.80;;;;;;5053353;28;20032;-66
2023/01/05 07:58:43;;;;;;;0.38;0.32;;;13.40;93.70;;;;;;5052403;28;20029;-66
2023/01/05 08:01:11;;;;;;;2.90;0.60;;;13.40;93.80;;;;;;5052608;28;20029;-65
2023/01/05 08:03:37;;;;;;;0.70;0.45;;;13.40;93.90;;;;;;5052843;28;20441;-66
2023/01/05 08:06:06;;;;;;;1.52;0.35;;;13.40;93.80;;;;;;5052877;28;20118;-67
2023/01/05 08:08:32;;;;;;;0.73;0.40;;;13.50;93.80;;;;;;5053384;28;20028;-66
2023/01/05 08:10:57;;;;;;;0.98;0.60;;;13.50;93.80;;;;;;5052562;28;20028;-66
2023/01/05 08:16:07;;;;;;;0.60;0.60;;;13.50;93.90;;;;;;5052341;28;20044;-66
2023/01/05 08:18:33;;;;;;;1.35;0.52;;;13.50;93.90;;;;;;5053235;28;20033;-66
2023/01/05 08:21:03;;;;;;;0.57;0.50;;;13.50;94.10;;;;;;5052615;28;20036;-66
2023/01/05 08:23:31;;;;;;;1.20;0.40;;;13.50;94.20;;;;;;5052601;28;20401;-65
2023/01/05 08:25:56;;;;;;;2.03;1.02;;;13.50;94.10;;;;;;5052361;28;20151;-65
2023/01/05 08:28:25;;;;;;;0.85;0.52;;;13.50;94.10;;;;;;5052816;28;20049;-65
2023/01/05 08:30:50;;;;;;;0.80;0.60;;;13.50;94.40;;;;;;5051051;28;20067;-66
2023/01/05 08:33:16;;;;;;;1.02;0.50;;;13.50;94.50;;;;;;5051016;28;20064;-65
2023/01/05 08:35:44;;;;;;;2.10;0.90;;;13.50;94.50;;;;;;5052911;28;20052;-68
2023/01/05 08:38:10;;;;;;;1.25;0.80;;;13.50;94.40;;;;;;5052157;28;20095;-66
2023/01/05 08:40:37;;;;;;;1.65;0.52;;;13.50;94.10;;;;;;5052649;28;20493;-67
2023/01/05 08:43:04;;;;;;;1.52;0.40;;;13.50;94.00;;;;;;5052160;28;20104;-66
2023/01/05 08:45:30;;;;;;;1.23;0.60;;;13.50;94.20;;;;;;5052730;28;20108;-66
2023/01/05 08:47:56;;;;;;;0.85;0.60;;;13.50;94.10;;;;;;5050296;28;20022;-66
2023/01/05 08:50:22;;;;;;;0.60;0.40;;;13.50;94.10;;;;;;5052221;28;20090;-65
2023/01/05 08:52:47;;;;;;;0.68;0.55;;;13.50;93.90;;;;;;5052462;28;20108;-66
2023/01/05 08:55:13;;;;;;;0.45;0.40;;;13.50;93.60;;;;;;5051698;28;20051;-66
2023/01/05 08:57:39;;;;;;;0.70;0.50;;;13.60;93.50;;;;;;5052081;28;20021;-67
2023/01/05 09:00:05;;;;;;;0.95;0.40;;;13.60;93.70;;;;;;5051467;28;20482;-67
2023/01/05 09:02:31;;;;;;;1.25;0.50;;;13.60;94.00;;;;;;5052212;28;20060;-66
2023/01/05 09:04:56;;;;;;;0.60;0.60;;;13.50;93.60;;;;;;5051817;28;20068;-71
2023/01/05 09:07:23;;;;;;;0.88;0.80;;;13.60;93.60;;;;;;5052285;28;20032;-67
2023/01/05 09:09:48;;;;;;;1.42;0.80;;;13.50;93.40;;;;;;5051709;28;20037;-66
2023/01/05 09:12:14;;;;;;;0.50;0.50;;;13.50;93.50;;;;;;5051579;28;20025;-67
2023/01/05 09:14:40;;;;;;;0.63;0.50;;;13.60;93.40;;;;;;5051958;28;20122;-66
2023/01/05 09:17:05;;;;;;;1.33;0.50;;;13.50;93.50;;;;;;5051810;28;20377;-67
2023/01/05 09:19:31;;;;;;;1.13;0.45;;;13.60;93.20;;;;;;5052306;28;20028;-66
2023/01/05 09:21:57;;;;;;;0.80;0.47;;;13.60;93.20;;;;;;5052064;28;20104;-66
2023/01/05 09:24:22;;;;;;;1.15;0.40;;;13.60;93.20;;;;;;5051748;28;20037;-66
2023/01/05 09:26:49;;;;;;;0.30;0.30;;;13.60;93.20;;;;;;5051513;28;20465;-65
2023/01/05 09:29:15;;;;;;;1.52;0.50;;;13.60;93.30;;;;;;5051288;28;20031;-65
2023/01/05 09:31:41;;;;;;;0.35;0.30;;;13.60;93.40;;;;;;5052045;28;20107;-65
2023/01/05 09:34:07;;;;;;;0.50;0.43;;;13.70;93.10;;;;;;5050386;28;20120;-66
2023/01/05 09:36:33;;;;;;;1.70;0.50;;;13.70;93.20;;;;;;5051839;28;20022;-65
2023/01/05 09:38:59;;;;;;;1.45;0.70;;;13.70;93.30;;;;;;5050314;28;20126;-71
2023/01/05 09:41:44;;;;;;;2.03;0.90;;;13.70;93.20;;;;;;5051875;28;20033;-65
2023/01/05 09:44:28;;;;;;;2.65;0.90;;;13.70;93.30;;;;;;5051641;28;20029;-66
2023/01/05 09:46:57;;;;;;;1.73;0.88;;;13.70;93.20;;;;;;5052031;28;20033;-66
2023/01/05 09:49:25;;;;;;;0.60;0.50;;;13.70;93.50;;;;;;5051447;28;20021;-67
2023/01/05 09:51:56;;;;;;;0.77;0.60;;;13.70;93.30;;;;;;5051925;28;20043;-66
2023/01/05 09:54:23;;;;;;;;;;;13.80;93.40;;;;;;5052415;28;20060;-66
2023/01/05 09:56:50;;;;;;;2.83;0.50;;;13.80;93.50;;;;;;5051986;28;19908;-67
2023/01/05 09:59:28;;;;;;;1.30;0.70;;;13.90;93.20;;;;;;5051594;28;20075;-67
2023/01/05 10:01:57;;;;;;;0.93;0.40;;;14.00;93.00;;;;;;5051767;28;20064;-68
2023/01/05 10:04:26;;;;;;;1.30;0.50;;;14.00;92.40;;;;;;5051278;28;20372;-66
2023/01/05 10:06:57;;;;;;;0.75;0.35;;;14.00;92.40;;;;;;5051276;28;20032;-67
2023/01/05 10:09:37;;;;;;;2.85;1.17;;;14.00;91.90;;;;;;5048516;28;20017;-67
2023/01/05 10:15:08;;;;;;;0.77;0.65;;;14.00;91.90;;;;;;5051597;28;20047;-66
2023/01/05 10:17:38;;;;;;;1.23;0.50;;;14.00;92.00;;;;;;5052019;28;20037;-66
2023/01/05 10:20:17;;;;;;;0.95;0.65;;;13.90;92.20;;;;;;5054545;28;20045;-68
2023/01/05 10:23:10;;;;;;;1.23;0.68;;;13.80;92.60;;;;;;5052377;28;20024;-67
2023/01/05 10:25:48;;;;;;;1.13;0.40;;;13.80;92.70;;;;;;5051114;28;20029;-67
2023/01/05 10:28:28;;;;;;;2.03;0.80;;;13.80;93.10;;;;;;5053141;28;20017;-67
2023/01/05 10:30:59;;;;;;;4.55;1.23;;;13.80;95.10;;;;;;5054903;28;20083;-67
2023/01/05 10:33:37;;;;;;;4.57;0.88;;;13.60;98.70;;;;;;5049068;28;20087;-67
2023/01/05 10:36:05;;;;;;;3.58;0.95;;;13.20;99.90;;;;;;5052499;28;20036;-72
2023/01/05 10:38:54;;;;;;;1.92;0.80;;;12.80;99.90;;;;;;5052089;28;20481;-67
2023/01/05 10:41:31;;;;;;;1.88;0.60;;;12.70;99.90;;;;;;5052183;28;20444;-67
2023/01/05 10:44:09;;;;;;;2.13;0.95;;;12.30;99.90;;;;;;5054658;28;20036;-66
2023/01/05 10:46:40;;;;;;;2.28;0.70;;;12.00;99.90;;;;;;5055052;28;20028;-67
2023/01/05 10:49:07;;;;;;;4.43;0.80;;;11.90;99.90;;;;;;5054601;28;20029;-67
2023/01/05 10:51:34;;;;;;;2.38;0.65;;;11.80;99.90;;;;;;5054671;28;20037;-67
2023/01/05 10:54:02;;;;;;;1.83;0.90;;;11.70;99.90;;;;;;5053481;28;20123;-67
2023/01/05 10:56:28;;;;;;;2.85;0.90;;;11.60;99.90;;;;;;5054303;28;20029;-66
2023/01/05 10:59:19;;;;;;;3.35;0.80;;;11.60;99.90;;;;;;5054582;28;20032;-66
2023/01/05 11:01:48;;;;;;;2.20;0.80;;;11.40;99.90;;;;;;5052828;28;20044;-68
2023/01/05 11:04:17;;;;;;;1.45;1.00;;;11.40;99.90;;;;;;5054144;28;20032;-67
2023/01/05 11:06:43;;;;;;;2.95;1.23;;;11.40;99.90;;;;;;5054277;28;20458;-66
2023/01/05 11:09:12;;;;;;;3.17;1.17;;;11.50;99.90;;;;;;5054146;28;20071;-66
2023/01/05 11:11:38;;;;;;;3.22;0.90;;;11.40;99.90;;;;;;5053953;28;20024;-66
2023/01/05 11:14:04;;;;;;;2.38;1.05;;;11.30;99.90;;;;;;5053692;28;20079;-67
2023/01/05 11:16:34;;;;;;;4.47;1.40;;;11.30;99.90;;;;;;5053007;28;20040;-67
2023/01/05 11:19:06;;;;;;;4.00;1.23;;;11.40;99.90;;;;;;5053759;28;20021;-67
2023/01/05 11:21:35;;;;;;;7.53;1.40;;;11.30;99.90;;;;;;5051148;28;20048;-67
2023/01/05 11:24:03;;;;;;;4.45;1.23;;;11.40;99.90;;;;;;5053468;28;20033;-66
2023/01/05 11:26:28;;;;;;;5.82;1.52;;;11.40;99.90;;;;;;5053059;28;20017;-67
2023/01/05 11:29:03;;;;;;;6.05;1.27;;;11.40;99.90;;;;;;5051694;28;20078;-68
2023/01/05 11:31:43;;;;;;;5.10;1.38;;;11.40;99.90;;;;;;5053303;28;20029;-67
2023/01/05 11:34:25;;;;;;;6.10;1.42;;;11.50;99.90;;;;;;5053428;28;20029;-66
2023/01/05 11:37:01;;;;;;;4.38;1.42;;;11.60;99.90;;;;;;5053898;28;20079;-67
2023/01/05 11:39:38;;;;;;;5.55;1.48;;;11.70;99.90;;;;;;5052929;28;20468;-66
2023/01/05 11:42:35;;;;;;;2.63;1.05;;;11.80;99.90;;;;;;5053102;28;20052;-66
2023/01/05 11:45:20;;;;;;;4.20;1.15;;;11.90;99.90;;;;;;5053119;28;20421;-67
2023/01/05 11:47:58;;;;;;;4.45;1.17;;;12.00;99.90;;;;;;5053551;28;20153;-67
2023/01/05 11:50:32;;;;;;;2.97;1.10;;;12.00;99.90;;;;;;5053175;28;20112;-66
2023/01/05 11:53:01;;;;;;;4.32;1.20;;;12.00;99.90;;;;;;5053234;28;20025;-67
2023/01/05 11:55:37;;;;;;;4.63;1.30;;;12.00;99.90;;;;;;5052844;28;20025;-66
2023/01/05 11:58:24;;;;;;;2.17;1.10;;;12.00;99.90;;;;;;5053280;28;20079;-66
2023/01/05 12:01:17;;;;;;;5.32;1.20;;;12.20;99.90;;;;;;5053220;28;20035;-67
2023/01/05 12:04:23;;;;;;;3.70;1.48;;;12.20;99.90;;;;;;5053204;28;20079;-68
2023/01/05 12:06:59;;;;;;;6.63;1.35;;;12.30;99.90;;;;;;5031090;28;20575;-66
2023/01/05 12:09:32;;;;;;;3.67;1.25;;;12.40;99.90;;;;;;5050179;28;20064;-67
2023/01/05 12:12:20;;;;;;;4.10;1.20;;;12.50;99.90;;;;;;5052964;28;20382;-66
2023/01/05 12:15:06;;;;;;;2.60;1.05;;;12.60;99.90;;;;;;5053056;28;20021;-66
2023/01/05 12:17:38;;;;;;;4.50;1.27;;;12.60;99.90;;;;;;5052643;28;20028;-67
2023/01/05 12:20:33;;;;;;;2.40;1.00;;;12.50;99.90;;;;;;5052940;28;20437;-66
2023/01/05 12:23:18;;;;;;;3.05;1.20;;;12.50;99.90;;;;;;5052952;28;20029;-67
2023/01/05 12:26:03;;;;;;;4.97;1.38;;;12.40;99.90;;;;;;5052867;28;20021;-68
2023/01/05 12:28:50;;;;;;;4.72;1.40;;;12.30;99.90;;;;;;5051198;28;20108;-68
2023/01/05 12:31:38;;;;;;;3.90;1.10;;;12.30;99.90;;;;;;5052332;28;20032;-67
2023/01/05 12:34:51;;;;;;;1.92;1.00;;;12.20;99.90;;;;;;5052687;28;20500;-66
2023/01/05 12:37:43;;;;;;;2.60;1.23;;;12.20;99.90;;;;;;5045609;28;20032;-67
2023/01/05 12:40:14;;;;;;;;;;;12.00;99.90;;;;;;5041085;28;20084;-67
2023/01/05 12:42:55;;;;;;;3.10;1.42;;;12.10;99.90;;;;;;5050581;28;19916;-66
2023/01/05 12:45:56;;;;;;;5.07;1.55;;;12.00;99.90;;;;;;5051788;28;20029;-68
2023/01/05 12:48:53;;;;;;;4.45;1.42;;;12.00;99.90;;;;;;5052163;28;20529;-67
2023/01/05 12:51:43;;;;;;;2.83;1.10;;;12.00;99.90;;;;;;5050525;28;20132;-66
2023/01/05 12:54:42;;;;;;;5.13;1.35;;;12.00;99.90;;;;;;5052497;28;20029;-66
2023/01/05 12:57:13;;;;;;;2.80;0.90;;;12.00;99.90;;;;;;5052237;28;20478;-67
2023/01/05 13:00:14;;;;;;;2.90;1.23;;;12.00;99.90;;;;;;5052475;28;20033;-67
2023/01/05 13:02:43;;;;;;;5.63;1.55;;;12.00;99.90;;;;;;5052448;28;20130;-67
2023/01/05 13:05:26;;;;;;;4.18;1.42;;;12.00;99.90;;;;;;5052405;28;20147;-66
2023/01/05 13:07:58;;;;;;;6.13;1.30;;;12.00;99.90;;;;;;5052265;28;20032;-67
2023/01/05 13:10:43;;;;;;;4.78;1.50;;;12.00;99.90;;;;;;5051227;28;20040;-67
2023/01/05 13:13:17;;;;;;;2.00;1.10;;;12.10;99.90;;;;;;5050690;28;20037;-67
2023/01/05 13:16:08;;;;;;;4.45;1.52;;;12.10;99.30;;;;;;5052214;28;20227;-66
2023/01/05 13:18:39;;;;;;;2.58;1.10;;;12.20;98.90;;;;;;5043987;28;20398;-67
2023/01/05 13:21:05;;;;;;;;;;;12.20;98.30;;;;;;5052475;28;20058;-67
2023/01/05 13:23:31;;;;;;;5.28;1.30;;;12.30;98.30;;;;;;5051670;28;19905;-67
2023/01/05 13:26:01;;;;;;;4.90;1.25;;;12.30;96.90;;;;;;5051940;28;20574;-66
2023/01/05 13:28:27;;;;;;;4.13;1.20;;;12.40;96.30;;;;;;5051524;28;20037;-67
2023/01/05 13:31:28;;;;;;;4.35;1.23;;;12.50;95.60;;;;;;5051360;28;20036;-67
2023/01/05 13:34:21;;;;;;;2.92;1.38;;;12.50;94.60;;;;;;5052340;28;20359;-67
2023/01/05 13:37:02;;;;;;;3.83;1.17;;;12.50;94.00;;;;;;5051533;28;20191;-66
2023/01/05 13:40:05;;;;;;;3.40;1.20;;;12.60;93.60;;;;;;5051025;28;20049;-67
2023/01/05 13:42:51;;;;;;;5.32;1.80;;;12.60;92.80;;;;;;5050609;28;20537;-67